Time;durP1;ratioP1;P1;durP2;ratioP2;P2;SDS_P1;SDS_P2;PMS_P1;PMS_P2;Temp;Humidity;BMP_temperature;BMP_pressure;BME280_temperature;BME280_humidity;BME280_pressure;Samples;Min_cycle;Max_cycle;Signal;HPM_P1;HPM_P2
2023/03/28 00:00:12;;;;;;;2.87;1.60;;;;;;;11.15;70.00;97535.41;6192652;23;20194;-95
2023/03/28 00:02:38;;;;;;;4.07;1.47;;;;;;;10.92;71.04;97535.44;6191928;23;20525;-95
2023/03/28 00:05:10;;;;;;;2.90;1.20;;;;;;;11.00;70.95;97553.19;6191884;23;20185;-95
2023/03/28 00:08:10;;;;;;;2.90;1.27;;;;;;;11.17;70.26;97546.59;6190718;23;20170;-95
2023/03/28 00:11:04;;;;;;;3.07;1.47;;;;;;;11.18;70.04;97540.41;6191234;23;20595;-95
2023/03/28 00:13:36;;;;;;;1.80;0.90;;;;;;;10.78;70.44;97551.41;6181031;23;20155;-94
2023/03/28 00:16:32;;;;;;;2.73;1.13;;;;;;;10.87;70.22;97568.22;6188320;23;20167;-95
2023/03/28 00:19:15;;;;;;;2.40;1.20;;;;;;;10.91;69.19;97560.00;6188277;23;20165;-94
2023/03/28 00:21:45;;;;;;;1.73;0.90;;;;;;;10.87;68.54;97562.97;6186129;23;20171;-94
2023/03/28 00:24:20;;;;;;;2.10;1.20;;;;;;;10.95;69.15;97557.97;6187195;23;20170;-94
2023/03/28 00:27:06;;;;;;;2.10;1.00;;;;;;;10.99;68.27;97560.22;6190015;23;20142;-94
2023/03/28 00:29:41;;;;;;;3.83;1.27;;;;;;;11.15;68.65;97551.97;6186461;23;20139;-94
2023/03/28 00:32:09;;;;;;;2.23;1.23;;;;;;;10.99;68.95;97549.72;6187522;23;20636;-93
2023/03/28 00:34:41;;;;;;;2.80;1.20;;;;;;;11.09;68.13;97552.44;6191743;23;20154;-95
2023/03/28 00:40:54;;;;;;;2.80;1.17;;;;;;;11.46;66.87;97560.81;6189106;23;20193;-96
2023/03/28 00:50:51;;;;;;;1.83;1.00;;;;;;;11.27;66.74;97542.28;6098677;23;20153;-93
2023/03/28 00:53:32;;;;;;;1.43;0.90;;;;;;;11.13;66.14;97532.06;6073126;23;20180;-94
2023/03/28 00:56:03;;;;;;;1.33;0.80;;;;;;;11.01;67.18;97534.72;6073158;23;20490;-93
2023/03/28 00:58:41;;;;;;;2.10;0.83;;;;;;;11.11;66.71;97540.03;6120357;23;20491;-95
2023/03/28 01:01:16;;;;;;;2.63;1.10;;;;;;;11.28;66.91;97541.31;6130934;23;20175;-94
2023/03/28 01:04:01;;;;;;;2.23;1.07;;;;;;;11.19;65.77;97535.00;6132520;23;20165;-96
2023/03/28 01:06:36;;;;;;;1.63;0.90;;;;;;;11.16;67.00;97529.22;6130571;23;20268;-95
2023/03/28 01:09:47;;;;;;;3.97;0.93;;;;;;;11.26;65.79;97536.22;6133313;23;20168;-95
2023/03/28 01:11:58;;;;;;;2.43;1.00;;;;;;;11.29;65.89;97535.97;6141299;23;20550;-95
2023/03/28 01:14:29;;;;;;;1.97;0.87;;;;;;;11.07;66.61;97541.25;6158706;23;20572;-94
2023/03/28 01:16:57;;;;;;;1.53;0.83;;;;;;;11.01;66.29;97544.34;6186509;23;20169;-93
2023/03/28 01:19:56;;;;;;;;;;;;;;;;;;;;;
2023/03/28 01:22:53;;;;;;;1.20;0.60;;;;;;;10.95;66.78;97550.91;6189688;23;20241;-94
2023/03/28 01:25:46;;;;;;;1.10;0.60;;;;;;;10.88;66.58;97554.16;6190983;23;20208;-95
2023/03/28 01:32:24;;;;;;;0.73;0.47;;;;;;;10.76;65.82;97539.41;6138581;23;20154;-95
2023/03/28 01:35:09;;;;;;;1.00;0.70;;;;;;;10.91;66.61;97543.41;6185258;23;20212;-94
2023/03/28 01:37:53;;;;;;;0.63;0.50;;;;;;;10.94;66.21;97549.25;6184027;23;20163;-95
2023/03/28 01:41:17;;;;;;;1.60;0.90;;;;;;;10.71;67.18;97552.03;6186566;23;20179;-93
2023/03/28 01:44:15;;;;;;;1.20;0.80;;;;;;;11.04;66.70;97546.75;6191231;23;20205;-95
2023/03/28 01:46:48;;;;;;;2.33;0.80;;;;;;;10.87;67.46;97550.72;6149632;23;20248;-94
2023/03/28 01:49:37;;;;;;;1.37;0.80;;;;;;;10.70;68.10;97551.19;6186606;23;20189;-92
2023/03/28 01:52:20;;;;;;;2.10;0.70;;;;;;;10.62;68.82;97561.44;6119694;23;20155;-93
2023/03/28 01:55:05;;;;;;;2.23;0.80;;;;;;;10.52;69.45;97557.03;6185357;23;20148;-94
2023/03/28 01:57:53;;;;;;;1.63;0.77;;;;;;;10.42;70.16;97557.75;6186382;23;20142;-94
2023/03/28 02:00:23;;;;;;;3.27;0.93;;;;;;;10.54;69.48;97560.34;6186555;23;20483;-91
2023/03/28 02:03:17;;;;;;;0.80;0.50;;;;;;;10.25;70.05;97563.44;6185661;23;20593;-95
2023/03/28 02:05:48;;;;;;;1.40;0.80;;;;;;;10.16;70.50;97579.84;6188175;23;20157;-94
2023/03/28 02:08:16;;;;;;;1.73;0.83;;;;;;;10.27;69.35;97572.00;6186569;23;20177;-91
2023/03/28 02:10:50;;;;;;;1.53;0.80;;;;;;;10.09;70.09;97596.91;6189468;23;20161;-95
2023/03/28 02:13:31;;;;;;;1.50;0.90;;;;;;;9.97;68.91;97595.22;6189660;23;20142;-93
2023/03/28 02:16:00;;;;;;;1.50;0.80;;;;;;;9.80;68.08;97606.13;6187526;23;20226;-93
2023/03/28 02:18:39;;;;;;;2.03;1.03;;;;;;;9.82;67.92;97605.06;6187109;23;20150;-92
2023/03/28 02:21:09;;;;;;;1.67;1.00;;;;;;;9.85;66.68;97622.31;6186825;23;20194;-92
2023/03/28 02:23:41;;;;;;;1.37;0.90;;;;;;;9.68;66.36;97615.69;6188306;23;20189;-93
2023/03/28 02:26:16;;;;;;;1.37;0.80;;;;;;;9.80;65.49;97616.59;6192509;23;20237;-94
2023/03/28 02:28:47;;;;;;;1.03;0.77;;;;;;;9.33;64.47;97622.63;6187670;23;20154;-92
2023/03/28 02:31:23;;;;;;;0.77;0.50;;;;;;;9.25;64.32;97627.56;6188306;23;20135;-94
2023/03/28 02:33:50;;;;;;;1.77;0.97;;;;;;;9.22;62.98;97633.03;6188919;23;20208;-92
2023/03/28 02:36:53;;;;;;;2.07;1.00;;;;;;;9.42;61.97;97631.59;6189354;23;20150;-92
2023/03/28 02:39:28;;;;;;;1.03;0.60;;;;;;;9.04;60.26;97621.25;6187518;23;20150;-93
2023/03/28 02:42:17;;;;;;;0.70;0.50;;;;;;;8.88;60.42;97639.78;6186586;23;20177;-92
2023/03/28 02:45:09;;;;;;;1.97;0.87;;;;;;;8.91;60.29;97641.34;6187996;23;20228;-94
2023/03/28 02:47:54;;;;;;;0.73;0.53;;;;;;;8.76;59.98;97630.19;6187436;23;20178;-92
2023/03/28 02:50:53;;;;;;;0.97;0.60;;;;;;;8.72;61.12;97627.88;6187809;23;20131;-93
2023/03/28 02:53:34;;;;;;;0.80;0.50;;;;;;;8.65;60.83;97640.50;6161318;23;20161;-94
2023/03/28 02:56:14;;;;;;;1.20;0.60;;;;;;;8.46;59.36;97633.09;6187274;23;20155;-93
2023/03/28 02:58:57;;;;;;;2.27;1.00;;;;;;;8.50;59.51;97641.56;6187852;23;20151;-92
2023/03/28 03:01:24;;;;;;;0.90;0.60;;;;;;;8.43;58.34;97642.94;6187865;23;20182;-92
2023/03/28 03:03:50;;;;;;;0.70;0.53;;;;;;;8.30;59.22;97650.75;6187467;23;20634;-91
2023/03/28 03:06:16;;;;;;;1.67;0.70;;;;;;;8.31;58.77;97655.03;6187582;23;20162;-91
2023/03/28 03:08:45;;;;;;;0.67;0.43;;;;;;;8.28;58.84;97654.41;6186996;23;20611;-93
2023/03/28 03:11:16;;;;;;;0.93;0.47;;;;;;;8.15;58.93;97670.00;6187335;23;20207;-93
2023/03/28 03:13:44;;;;;;;1.47;0.90;;;;;;;8.18;59.50;97661.97;6187475;23;20171;-92
2023/03/28 03:16:09;;;;;;;0.87;0.50;;;;;;;8.21;60.18;97681.81;6187563;23;20595;-94
2023/03/28 03:18:35;;;;;;;0.50;0.40;;;;;;;8.14;60.03;97670.09;6186767;23;20157;-92
2023/03/28 03:21:01;;;;;;;0.73;0.53;;;;;;;8.14;59.64;97675.31;6185762;23;20268;-92
2023/03/28 03:23:27;;;;;;;1.47;0.77;;;;;;;8.10;59.46;97674.69;6185830;23;20160;-94
2023/03/28 03:25:53;;;;;;;4.10;0.70;;;;;;;8.07;59.94;97687.94;6186396;23;20150;-93
2023/03/28 03:28:21;;;;;;;2.17;1.07;;;;;;;8.15;59.88;97671.78;6186791;23;20161;-94
2023/03/28 03:30:47;;;;;;;1.53;0.80;;;;;;;7.99;60.25;97675.38;6186007;23;20150;-95
2023/03/28 03:33:13;;;;;;;1.43;0.70;;;;;;;7.88;59.41;97705.72;6185738;23;20166;-93
2023/03/28 03:35:40;;;;;;;1.53;0.60;;;;;;;7.70;59.97;97692.09;6186086;23;20230;-93
2023/03/28 03:38:07;;;;;;;8.27;0.70;;;;;;;7.65;59.92;97695.94;6185571;23;20158;-90
2023/03/28 03:40:32;;;;;;;1.63;0.83;;;;;;;7.79;59.06;97698.47;6186230;23;20175;-92
2023/03/28 03:42:58;;;;;;;1.17;0.80;;;;;;;7.76;59.89;97707.34;6185694;23;20154;-91
2023/03/28 03:45:23;;;;;;;1.20;0.73;;;;;;;7.64;59.33;97699.47;6187106;23;20183;-93
2023/03/28 03:47:49;;;;;;;2.20;1.20;;;;;;;7.41;58.95;97704.38;6185639;23;20159;-92
2023/03/28 03:50:14;;;;;;;1.77;1.13;;;;;;;7.38;58.66;97685.47;6185589;23;20257;-93
2023/03/28 03:52:40;;;;;;;2.20;0.97;;;;;;;7.31;58.67;97710.25;6185310;23;20237;-92
2023/03/28 03:55:06;;;;;;;1.00;0.70;;;;;;;7.36;58.35;97698.59;6185168;23;20163;-92
2023/03/28 03:57:35;;;;;;;1.73;0.90;;;;;;;7.28;58.64;97705.22;6185475;23;20158;-93
2023/03/28 04:00:07;;;;;;;2.13;1.20;;;;;;;7.44;57.56;97695.53;6187134;23;20159;-91
2023/03/28 04:02:32;;;;;;;1.70;1.13;;;;;;;7.40;57.96;97704.47;6185479;23;20139;-93
2023/03/28 04:04:58;;;;;;;2.50;1.20;;;;;;;7.31;58.36;97700.66;6185656;23;20181;-93
2023/03/28 04:07:24;;;;;;;2.17;1.00;;;;;;;7.41;58.30;97711.34;6185210;23;20174;-93
2023/03/28 04:09:49;;;;;;;7.17;1.80;;;;;;;7.38;57.50;97711.53;6186650;23;20147;-94
2023/03/28 04:12:15;;;;;;;2.40;1.17;;;;;;;7.05;58.37;97698.00;6185304;23;20158;-92
2023/03/28 04:14:40;;;;;;;1.63;0.83;;;;;;;7.03;58.28;97716.31;6185325;23;20166;-92
2023/03/28 04:17:06;;;;;;;2.90;1.43;;;;;;;6.96;58.93;97720.22;6185881;23;20575;-92
2023/03/28 04:19:32;;;;;;;1.60;0.90;;;;;;;6.95;58.82;97722.91;6185841;23;20150;-93
2023/03/28 04:21:58;;;;;;;2.17;1.10;;;;;;;6.96;59.35;97715.03;6185643;23;20174;-93
2023/03/28 04:24:23;;;;;;;3.03;1.20;;;;;;;6.75;58.53;97714.53;6185690;23;20473;-90
2023/03/28 04:26:54;;;;;;;2.47;1.80;;;;;;;6.75;59.42;97727.56;6186203;23;20148;-93
2023/03/28 04:29:29;;;;;;;1.47;0.80;;;;;;;6.71;59.20;97720.84;6185862;23;20135;-93
2023/03/28 04:31:58;;;;;;;2.03;1.33;;;;;;;6.78;58.26;97727.38;6185379;23;20142;-94
2023/03/28 04:34:28;;;;;;;1.60;1.07;;;;;;;6.75;58.86;97730.16;6185460;23;20162;-90
2023/03/28 04:36:56;;;;;;;1.10;0.87;;;;;;;6.61;57.87;97750.13;6185311;23;20185;-91
2023/03/28 04:39:21;;;;;;;2.20;1.20;;;;;;;6.54;58.43;97751.41;6184290;23;20528;-92
2023/03/28 04:41:47;;;;;;;1.80;1.10;;;;;;;6.75;58.30;97752.75;6186226;23;20257;-93
2023/03/28 04:44:12;;;;;;;2.97;1.30;;;;;;;6.79;58.15;97762.91;6185522;23;20158;-92
2023/03/28 04:46:38;;;;;;;3.57;1.23;;;;;;;6.81;57.89;97758.44;6185475;23;20163;-92
2023/03/28 04:49:03;;;;;;;2.47;1.20;;;;;;;6.87;58.53;97780.66;6187223;23;20155;-92
2023/03/28 04:51:29;;;;;;;1.63;0.93;;;;;;;6.80;57.79;97801.03;6186058;23;20157;-92
2023/03/28 04:53:54;;;;;;;1.53;1.00;;;;;;;6.71;58.69;97796.34;6185623;23;20163;-91
2023/03/28 04:56:22;;;;;;;2.63;1.27;;;;;;;6.87;58.24;97798.06;6185173;23;20601;-93
2023/03/28 04:58:48;;;;;;;3.33;1.50;;;;;;;6.73;58.20;97781.47;6185293;23;20162;-92
2023/03/28 05:01:13;;;;;;;1.87;1.10;;;;;;;6.54;59.56;97800.88;6185161;23;20633;-93
2023/03/28 05:03:38;;;;;;;4.13;1.20;;;;;;;6.68;58.19;97775.69;6186024;23;20237;-92
2023/03/28 05:06:05;;;;;;;2.30;1.43;;;;;;;6.61;58.08;97799.59;6185143;23;20213;-93
2023/03/28 05:08:34;;;;;;;2.87;1.70;;;;;;;6.63;58.67;97815.97;6186412;23;20216;-95
2023/03/28 05:10:59;;;;;;;2.40;1.03;;;;;;;6.51;59.04;97791.47;6185982;23;20151;-94
2023/03/28 05:13:25;;;;;;;2.87;1.50;;;;;;;6.59;59.70;97828.31;6186857;23;20176;-93
2023/03/28 05:15:50;;;;;;;2.47;1.23;;;;;;;6.72;59.09;97811.06;6188352;23;20157;-92
2023/03/28 05:18:16;;;;;;;0.70;0.60;;;;;;;6.51;58.06;97798.44;6186032;23;20169;-92
2023/03/28 05:20:41;;;;;;;2.80;1.60;;;;;;;6.50;58.38;97835.81;6187416;23;20196;-95
2023/03/28 05:23:07;;;;;;;2.80;1.00;;;;;;;6.43;58.69;97830.09;6186462;23;20185;-93
2023/03/28 05:25:33;;;;;;;2.17;1.27;;;;;;;6.40;58.36;97839.84;6185533;23;20542;-93
2023/03/28 05:27:58;;;;;;;2.73;1.53;;;;;;;6.51;58.38;97843.53;6187478;23;20158;-94
2023/03/28 05:30:24;;;;;;;2.03;0.93;;;;;;;6.75;58.15;97854.31;6185654;23;20514;-93
2023/03/28 05:32:49;;;;;;;2.63;1.17;;;;;;;6.60;56.91;97857.78;6187514;23;20158;-93
2023/03/28 05:35:18;;;;;;;2.77;1.37;;;;;;;6.60;57.91;97853.41;6186161;23;20154;-94
2023/03/28 05:37:44;;;;;;;3.07;1.10;;;;;;;6.54;57.42;97856.38;6186382;23;20164;-94
2023/03/28 05:40:11;;;;;;;1.47;0.90;;;;;;;6.48;57.03;97859.31;6187598;23;20178;-91
2023/03/28 05:42:37;;;;;;;2.47;1.23;;;;;;;6.72;56.83;97857.94;6186900;23;20452;-94
2023/03/28 05:45:06;;;;;;;1.97;1.30;;;;;;;6.88;56.52;97838.81;6187452;23;20460;-93
2023/03/28 05:47:31;;;;;;;2.13;1.20;;;;;;;6.92;56.10;97879.38;6187937;23;20574;-94
2023/03/28 05:49:57;;;;;;;3.60;1.20;;;;;;;7.00;55.71;97862.38;6187194;23;20151;-93
2023/03/28 05:52:26;;;;;;;1.53;0.93;;;;;;;7.00;55.72;97858.91;6187060;23;20159;-93
2023/03/28 05:54:51;;;;;;;1.30;0.87;;;;;;;7.17;54.71;97849.19;6187186;23;20170;-95
2023/03/28 05:57:17;;;;;;;1.53;0.93;;;;;;;7.24;54.31;97844.44;6187376;23;20159;-94
2023/03/28 05:59:43;;;;;;;2.13;1.20;;;;;;;7.76;52.20;97842.97;6187141;23;20182;-93
2023/03/28 06:02:14;;;;;;;0.97;0.67;;;;;;;7.91;52.63;97841.19;6187203;23;20282;-93
2023/03/28 06:04:41;;;;;;;2.27;0.80;;;;;;;7.89;51.16;97840.41;6188276;23;20158;-92
2023/03/28 06:07:07;;;;;;;1.30;0.70;;;;;;;8.00;52.52;97849.25;6188208;23;20194;-92
2023/03/28 06:09:34;;;;;;;1.63;0.80;;;;;;;7.90;51.66;97876.88;6186536;23;20154;-93
2023/03/28 06:12:00;;;;;;;1.50;0.90;;;;;;;8.18;50.88;97855.09;6186721;23;20153;-94
2023/03/28 06:14:27;;;;;;;1.33;0.80;;;;;;;8.67;48.99;97899.84;6186474;23;20156;-95
2023/03/28 06:16:54;;;;;;;2.37;1.20;;;;;;;8.52;49.94;97854.66;6186370;23;20166;-91
2023/03/28 06:19:20;;;;;;;2.17;0.90;;;;;;;8.96;48.68;97872.63;6186237;23;20212;-93
2023/03/28 06:21:45;;;;;;;2.13;1.00;;;;;;;8.62;48.05;97870.56;6187011;23;20177;-91
2023/03/28 06:24:11;;;;;;;1.20;0.80;;;;;;;8.42;48.85;97868.38;6186595;23;20215;-93
2023/03/28 06:26:36;;;;;;;1.33;0.93;;;;;;;8.02;49.70;97873.47;6186471;23;20169;-95
2023/03/28 06:29:05;;;;;;;3.17;1.10;;;;;;;7.96;50.67;97893.91;6188156;23;20147;-93
2023/03/28 06:31:32;;;;;;;0.90;0.57;;;;;;;7.96;50.22;97886.94;6187462;23;20152;-93
2023/03/28 06:34:00;;;;;;;3.37;0.70;;;;;;;8.10;50.47;97885.22;6186270;23;20154;-94
2023/03/28 06:36:25;;;;;;;6.83;1.03;;;;;;;8.05;50.42;97896.78;6187549;23;20188;-94
2023/03/28 06:38:52;;;;;;;2.30;1.00;;;;;;;8.07;49.44;97935.81;6186758;23;20629;-93
2023/03/28 06:41:18;;;;;;;1.33;0.60;;;;;;;8.19;49.42;97921.19;6187411;23;20174;-92
2023/03/28 06:43:43;;;;;;;1.97;0.70;;;;;;;8.09;48.83;97917.47;6186047;23;20166;-92
2023/03/28 06:46:09;;;;;;;1.13;0.60;;;;;;;7.97;48.77;97925.13;6186098;23;20463;-94
2023/03/28 06:48:35;;;;;;;1.07;0.50;;;;;;;7.75;48.71;97945.63;6187670;23;20146;-91
2023/03/28 06:51:02;;;;;;;1.50;0.70;;;;;;;7.95;49.47;97929.59;6186240;23;20156;-94
2023/03/28 06:53:30;;;;;;;4.93;0.60;;;;;;;8.01;49.18;97925.78;6186345;23;20564;-93
2023/03/28 06:55:55;;;;;;;0.60;0.33;;;;;;;7.95;48.62;97926.13;6187827;23;20174;-94
2023/03/28 06:58:22;;;;;;;0.87;0.57;;;;;;;8.10;48.23;97938.25;6186943;23;20166;-93
2023/03/28 07:00:51;;;;;;;1.17;0.60;;;;;;;8.37;48.44;97920.06;6185464;23;20301;-92
2023/03/28 07:03:16;;;;;;;0.63;0.50;;;;;;;8.47;47.08;97923.75;6187627;23;20157;-95
2023/03/28 07:05:45;;;;;;;0.90;0.50;;;;;;;8.70;46.86;97957.09;6186652;23;20156;-93
2023/03/28 07:08:12;;;;;;;0.63;0.37;;;;;;;8.97;45.63;97928.34;6186145;23;20208;-93
2023/03/28 07:10:44;;;;;;;0.53;0.40;;;;;;;9.43;46.33;97931.38;6187641;23;20165;-93
2023/03/28 07:13:13;;;;;;;1.00;0.50;;;;;;;9.62;45.19;97952.72;6187683;23;20161;-95
2023/03/28 07:15:38;;;;;;;1.10;0.83;;;;;;;9.62;45.17;97957.97;6188681;23;20242;-92
2023/03/28 07:18:10;;;;;;;1.33;0.63;;;;;;;9.90;44.66;97952.56;6187010;23;20165;-94
2023/03/28 07:20:39;;;;;;;1.17;0.70;;;;;;;10.34;44.87;97947.72;6188489;23;20622;-94
2023/03/28 07:23:05;;;;;;;2.03;0.80;;;;;;;10.42;44.76;97944.56;6187498;23;20182;-90
2023/03/28 07:25:34;;;;;;;1.10;0.80;;;;;;;10.13;44.43;97937.91;6188486;23;20155;-95
2023/03/28 07:28:00;;;;;;;1.30;0.77;;;;;;;10.30;43.34;97946.25;6187910;23;20241;-93
2023/03/28 07:30:25;;;;;;;6.90;0.87;;;;;;;10.14;43.25;97945.63;6187117;23;20499;-94
2023/03/28 07:32:54;;;;;;;4.00;0.83;;;;;;;10.17;43.01;97941.97;6186726;23;20162;-94
2023/03/28 07:35:19;;;;;;;1.57;1.00;;;;;;;10.12;43.65;97946.66;6186434;23;20154;-94
2023/03/28 07:37:46;;;;;;;2.33;0.90;;;;;;;9.70;41.13;97977.44;6186825;23;20185;-93
2023/03/28 07:40:11;;;;;;;1.47;0.90;;;;;;;9.46;42.83;97965.19;6186736;23;20240;-94
2023/03/28 07:42:37;;;;;;;2.50;1.17;;;;;;;9.25;43.63;97983.09;6186288;23;20157;-94
2023/03/28 07:45:07;;;;;;;8.73;1.17;;;;;;;9.02;43.75;97953.25;6186226;23;20169;-92
2023/03/28 07:47:32;;;;;;;2.47;1.07;;;;;;;9.09;43.06;97991.09;6186527;23;20188;-93
2023/03/28 07:49:57;;;;;;;2.23;0.93;;;;;;;9.06;43.16;97980.88;6187341;23;20200;-93
2023/03/28 07:52:26;;;;;;;1.77;1.00;;;;;;;9.40;43.22;97949.91;6187314;23;20158;-94
2023/03/28 07:54:52;;;;;;;1.87;0.90;;;;;;;9.35;43.05;97975.50;6186780;23;20161;-95
2023/03/28 07:57:18;;;;;;;1.33;0.73;;;;;;;9.46;43.82;97960.78;6187049;23;20168;-95
2023/03/28 07:59:43;;;;;;;2.27;1.03;;;;;;;9.17;44.01;97972.34;6187327;23;20153;-92
2023/03/28 08:02:12;;;;;;;1.93;1.20;;;;;;;9.07;42.97;97974.69;6184478;23;20181;-93
2023/03/28 08:04:37;;;;;;;1.33;0.70;;;;;;;9.17;43.10;97999.28;6186701;23;20158;-92
2023/03/28 08:07:03;;;;;;;1.73;1.03;;;;;;;8.99;43.99;97995.25;6186288;23;20194;-91
2023/03/28 08:09:28;;;;;;;1.60;0.83;;;;;;;9.01;43.84;97990.78;6186481;23;20233;-89
2023/03/28 08:11:54;;;;;;;4.43;1.33;;;;;;;9.21;43.75;97981.66;6185350;23;20229;-92
2023/03/28 08:14:20;;;;;;;1.37;0.93;;;;;;;9.00;43.77;97981.25;6186362;23;20255;-95
2023/03/28 08:16:50;;;;;;;2.07;1.40;;;;;;;8.98;43.87;97998.81;6188322;23;20204;-91
2023/03/28 08:19:16;;;;;;;5.70;1.10;;;;;;;9.11;44.60;98002.31;6186146;23;20581;-92
2023/03/28 08:21:45;;;;;;;7.07;1.23;;;;;;;8.87;43.84;98034.41;6186585;23;20263;-93
2023/03/28 08:24:13;;;;;;;1.63;1.07;;;;;;;8.63;44.55;98042.00;6186992;23;20149;-94
2023/03/28 08:26:38;;;;;;;0.83;0.60;;;;;;;8.53;44.53;98026.06;6187342;23;20158;-93
2023/03/28 08:29:08;;;;;;;1.30;0.70;;;;;;;8.78;44.19;98035.81;6187053;23;20244;-94
2023/03/28 08:31:33;;;;;;;0.97;0.77;;;;;;;8.91;44.54;98034.09;6186076;23;20172;-93
2023/03/28 08:33:59;;;;;;;8.07;1.77;;;;;;;9.07;42.96;98021.75;6185828;23;20213;-91
2023/03/28 08:36:26;;;;;;;2.23;0.80;;;;;;;9.21;43.35;98055.69;6187601;23;20570;-91
2023/03/28 08:39:03;;;;;;;2.50;1.17;;;;;;;9.38;42.85;98046.72;6187167;23;20225;-92
2023/03/28 08:41:31;;;;;;;2.53;1.37;;;;;;;9.54;43.65;98044.00;6186543;23;20188;-91
2023/03/28 08:44:38;;;;;;;1.93;1.07;;;;;;;9.99;42.57;98061.84;6186907;23;20165;-95
2023/03/28 08:47:41;;;;;;;2.97;1.27;;;;;;;9.87;42.78;98062.69;6188500;23;20150;-93
2023/03/28 08:50:30;;;;;;;0.60;0.50;;;;;;;9.86;41.50;98067.06;6188540;23;20237;-91
2023/03/28 08:53:02;;;;;;;2.77;1.60;;;;;;;9.51;41.98;98065.91;6187880;23;20146;-92
2023/03/28 08:55:41;;;;;;;2.60;1.73;;;;;;;9.60;43.26;98074.94;6186223;23;20545;-92
2023/03/28 08:58:18;;;;;;;3.77;1.27;;;;;;;9.94;43.05;98087.50;6186118;23;20239;-94
2023/03/28 09:00:48;;;;;;;2.83;1.37;;;;;;;10.10;42.60;98076.81;6185369;23;20239;-92
2023/03/28 09:03:36;;;;;;;2.23;1.13;;;;;;;10.04;41.67;98088.53;6186564;23;20150;-92
2023/03/28 09:06:27;;;;;;;2.20;1.03;;;;;;;10.31;41.60;98089.34;6185796;23;20154;-88
2023/03/28 09:09:16;;;;;;;1.67;1.10;;;;;;;10.59;41.27;98098.75;6186580;23;20138;-93
2023/03/28 09:12:05;;;;;;;1.10;0.80;;;;;;;10.63;40.51;98113.34;6186625;23;20162;-90
2023/03/28 09:15:08;;;;;;;1.83;1.00;;;;;;;10.65;40.96;98118.47;6187865;23;20196;-90
2023/03/28 09:17:58;;;;;;;2.27;1.07;;;;;;;10.65;39.37;98106.22;6186903;23;20143;-91
2023/03/28 09:20:58;;;;;;;2.53;0.77;;;;;;;10.53;39.57;98125.41;6186648;23;20174;-93
2023/03/28 09:24:04;;;;;;;2.77;1.07;;;;;;;10.58;40.33;98111.97;6187192;23;20455;-92
2023/03/28 09:26:35;;;;;;;1.60;0.93;;;;;;;10.88;39.95;98115.06;6185595;23;20634;-94
2023/03/28 09:29:07;;;;;;;6.70;1.20;;;;;;;10.84;40.92;98113.63;6186307;23;20150;-91
2023/03/28 09:32:06;;;;;;;1.73;0.90;;;;;;;10.93;40.04;98121.69;6185143;23;20570;-90
2023/03/28 09:35:15;;;;;;;2.20;0.87;;;;;;;11.22;40.13;98132.75;6137335;23;20182;-92
2023/03/28 09:38:10;;;;;;;1.93;1.20;;;;;;;11.52;40.21;98142.84;6133906;23;20197;-94
2023/03/28 09:40:42;;;;;;;2.40;1.10;;;;;;;11.75;39.67;98128.91;6180740;23;20265;-91
2023/03/28 09:43:26;;;;;;;2.20;0.97;;;;;;;11.22;39.80;98153.72;6185395;23;20485;-94
2023/03/28 09:46:04;;;;;;;3.23;1.40;;;;;;;11.71;38.64;98130.91;6186674;23;20143;-91
2023/03/28 09:48:55;;;;;;;1.10;0.77;;;;;;;11.61;38.80;98143.00;6185419;23;20155;-94
2023/03/28 09:51:30;;;;;;;1.63;1.00;;;;;;;11.71;38.32;98151.91;6165334;23;20168;-95
2023/03/28 09:53:56;;;;;;;1.90;0.87;;;;;;;12.02;38.45;98147.06;6184959;23;20485;-95
2023/03/28 09:56:32;;;;;;;2.33;1.10;;;;;;;11.87;37.36;98148.19;6185154;23;20156;-91
2023/03/28 09:59:01;;;;;;;2.37;1.00;;;;;;;12.09;38.36;98151.72;6184811;23;20152;-94
2023/03/28 10:01:45;;;;;;;0.60;0.50;;;;;;;12.35;38.60;98157.66;6188897;23;20503;-95
2023/03/28 10:04:22;;;;;;;3.43;1.03;;;;;;;12.08;38.23;98159.75;6186339;23;20229;-92
2023/03/28 10:07:12;;;;;;;2.63;0.90;;;;;;;11.71;38.34;98159.78;6185838;23;20542;-92
2023/03/28 10:10:10;;;;;;;2.10;1.00;;;;;;;12.08;38.78;98170.25;6186534;23;20236;-94
2023/03/28 10:12:37;;;;;;;2.50;1.03;;;;;;;11.85;38.72;98166.66;6174637;23;20175;-93
2023/03/28 10:15:40;;;;;;;2.27;1.10;;;;;;;12.16;38.66;98194.97;6184845;23;20244;-90
2023/03/28 10:18:06;;;;;;;2.23;0.73;;;;;;;11.81;37.52;98186.22;6185644;23;20207;-90
2023/03/28 10:20:38;;;;;;;3.17;0.97;;;;;;;11.78;37.50;98180.34;6184274;23;20184;-90
2023/03/28 10:23:11;;;;;;;1.73;0.97;;;;;;;11.59;38.45;98186.91;6184366;23;20149;-93
2023/03/28 10:25:40;;;;;;;2.27;0.90;;;;;;;11.51;37.79;98194.47;6186224;23;20137;-90
2023/03/28 10:28:12;;;;;;;1.33;0.80;;;;;;;11.77;38.36;98194.41;6185801;23;20564;-92
2023/03/28 10:30:38;;;;;;;1.37;0.70;;;;;;;11.63;38.08;98187.53;6187077;23;20186;-91
2023/03/28 10:33:25;;;;;;;2.30;0.70;;;;;;;11.64;38.66;98189.19;6185892;23;20231;-92
2023/03/28 10:36:06;;;;;;;1.23;0.90;;;;;;;11.93;39.11;98179.22;6187363;23;20161;-92
2023/03/28 10:38:45;;;;;;;3.80;1.27;;;;;;;12.11;38.27;98189.22;6185798;23;20643;-90
2023/03/28 10:41:19;;;;;;;1.97;0.93;;;;;;;12.20;36.60;98192.97;6185486;23;20188;-91
2023/03/28 10:43:44;;;;;;;3.13;0.97;;;;;;;11.99;36.86;98210.31;6185846;23;20150;-93
2023/03/28 10:46:20;;;;;;;1.50;0.77;;;;;;;11.77;36.26;98194.41;6185670;23;20230;-92
2023/03/28 10:48:50;;;;;;;2.63;1.57;;;;;;;11.74;36.25;98226.97;6185724;23;20231;-91
2023/03/28 10:51:20;;;;;;;8.47;1.13;;;;;;;11.77;37.38;98221.50;6187027;23;20175;-93
2023/03/28 10:54:33;;;;;;;1.27;0.50;;;;;;;12.29;34.96;98211.50;6186420;23;20482;-91
2023/03/28 10:57:21;;;;;;;3.70;0.63;;;;;;;12.14;36.21;98214.44;6187035;23;20224;-95
2023/03/28 10:59:53;;;;;;;1.10;0.67;;;;;;;12.11;36.13;98222.53;6186448;23;20227;-92
2023/03/28 11:02:44;;;;;;;1.80;0.90;;;;;;;12.25;36.74;98217.94;6186867;23;20185;-94
2023/03/28 11:05:44;;;;;;;1.07;0.60;;;;;;;12.78;37.59;98213.09;6141904;23;20188;-91
2023/03/28 11:08:56;;;;;;;1.27;0.77;;;;;;;12.43;35.08;98209.63;6185440;23;20480;-92
2023/03/28 11:11:57;;;;;;;1.33;0.73;;;;;;;12.14;35.16;98224.94;6015778;23;20472;-91
2023/03/28 11:14:41;;;;;;;1.30;0.70;;;;;;;12.41;36.50;98207.13;6089947;23;20645;-92
2023/03/28 11:17:13;;;;;;;2.43;0.70;;;;;;;12.47;33.93;98219.84;6185884;23;20150;-91
2023/03/28 11:20:09;;;;;;;2.33;0.90;;;;;;;12.28;34.27;98235.28;6187131;23;20263;-92
2023/03/28 11:22:51;;;;;;;1.20;0.50;;;;;;;12.10;34.84;98224.34;6185602;23;20166;-93
2023/03/28 11:25:22;;;;;;;3.47;0.60;;;;;;;12.04;34.22;98235.28;6187353;23;20158;-92
2023/03/28 11:28:11;;;;;;;3.20;1.00;;;;;;;11.94;34.12;98233.44;6185543;23;20157;-90
2023/03/28 11:30:39;;;;;;;2.03;0.80;;;;;;;11.91;34.98;98221.38;6185566;23;20152;-92
2023/03/28 11:33:12;;;;;;;1.30;1.00;;;;;;;12.10;35.13;98228.75;6185534;23;20152;-90
2023/03/28 11:35:44;;;;;;;5.57;1.07;;;;;;;12.01;34.20;98230.25;6186693;23;20176;-92
2023/03/28 11:38:21;;;;;;;1.67;0.70;;;;;;;11.81;34.36;98204.59;6185336;23;20158;-90
2023/03/28 11:40:55;;;;;;;1.50;0.80;;;;;;;12.06;35.21;98233.38;6185688;23;20229;-91
2023/03/28 11:43:31;;;;;;;13.90;5.23;;;;;;;11.99;35.48;98231.31;6185534;23;20188;-94
2023/03/28 11:46:07;;;;;;;1.63;0.67;;;;;;;12.03;34.23;98230.97;6187106;23;20161;-93
2023/03/28 11:48:33;;;;;;;2.13;0.70;;;;;;;12.00;33.46;98244.31;6186633;23;20140;-91
2023/03/28 11:51:05;;;;;;;1.80;0.90;;;;;;;12.20;34.18;98248.13;6185046;23;20640;-91
2023/03/28 11:54:11;;;;;;;3.90;0.90;;;;;;;12.09;33.90;98235.78;6185621;23;20145;-91
2023/03/28 11:57:27;;;;;;;5.30;0.90;;;;;;;12.20;33.28;98251.59;6186556;23;20220;-92
2023/03/28 12:00:04;;;;;;;2.73;0.77;;;;;;;12.26;33.95;98239.81;6186277;23;20232;-93
2023/03/28 12:02:51;;;;;;;1.33;0.63;;;;;;;12.22;33.36;98236.56;6185335;23;20551;-94
2023/03/28 12:05:33;;;;;;;2.73;0.90;;;;;;;11.49;33.71;98241.00;6185095;23;20148;-90
2023/03/28 12:08:21;;;;;;;2.70;1.07;;;;;;;11.73;35.20;98246.31;6185196;23;20173;-93
2023/03/28 12:10:56;;;;;;;2.63;1.10;;;;;;;12.23;34.58;98251.38;6185115;23;20204;-92
2023/03/28 12:13:35;;;;;;;1.13;0.60;;;;;;;12.82;33.41;98246.91;6185555;23;20245;-90
2023/03/28 12:16:07;;;;;;;3.23;0.67;;;;;;;12.87;33.08;98243.94;6186846;23;20146;-92
2023/03/28 12:18:40;;;;;;;1.50;0.80;;;;;;;13.16;33.13;98249.63;6185206;23;20225;-91
2023/03/28 12:21:32;;;;;;;4.93;1.00;;;;;;;13.32;31.88;98258.88;6183524;23;20214;-94
2023/03/28 12:24:23;;;;;;;1.20;0.53;;;;;;;12.62;32.33;98266.00;6184915;23;20229;-92
2023/03/28 12:27:16;;;;;;;1.07;0.43;;;;;;;12.19;32.99;98273.56;6184908;23;20196;-91